Time;durP1;ratioP1;P1;durP2;ratioP2;P2;SDS_P1;SDS_P2;PMS_P1;PMS_P2;Temp;Humidity;BMP_temperature;BMP_pressure;BME280_temperature;BME280_humidity;BME280_pressure;Samples;Min_cycle;Max_cycle;Signal;HPM_P1;HPM_P2
2021/09/08 00:00:11;;;;;;;18.40;13.65;;;14.40;99.90;;;;;;5053158;28;20032;-75
2021/09/08 00:02:37;;;;;;;18.48;14.68;;;14.20;99.90;;;;;;5054633;28;20101;-76
2021/09/08 00:05:05;;;;;;;18.25;12.80;;;14.10;99.90;;;;;;5054258;28;20107;-75
2021/09/08 00:07:31;;;;;;;18.02;13.95;;;14.20;99.90;;;;;;5054491;28;20392;-75
2021/09/08 00:09:56;;;;;;;18.50;13.70;;;14.30;99.90;;;;;;5062058;28;20035;-75
2021/09/08 00:12:22;;;;;;;18.50;13.95;;;14.30;99.90;;;;;;5074421;28;20035;-76
2021/09/08 00:14:47;;;;;;;17.85;13.48;;;14.30;99.90;;;;;;5073233;28;20031;-76
2021/09/08 00:17:13;;;;;;;17.25;14.02;;;14.50;99.90;;;;;;5059638;28;20417;-75
2021/09/08 00:19:38;;;;;;;18.00;13.52;;;14.40;99.90;;;;;;5054198;28;20025;-75
2021/09/08 00:22:04;;;;;;;16.05;12.73;;;14.40;99.90;;;;;;5054150;28;20074;-75
2021/09/08 00:24:29;;;;;;;16.52;13.10;;;14.30;99.90;;;;;;5053990;28;20067;-75
2021/09/08 00:26:55;;;;;;;17.45;13.48;;;14.40;99.90;;;;;;5053138;28;20032;-76
2021/09/08 00:29:20;;;;;;;17.10;12.95;;;14.50;99.90;;;;;;5054093;28;20021;-75
2021/09/08 00:31:46;;;;;;;18.15;13.27;;;14.40;99.90;;;;;;5054173;28;20472;-76
2021/09/08 00:34:12;;;;;;;18.73;13.68;;;14.40;99.90;;;;;;5059354;28;20025;-75
2021/09/08 00:36:38;;;;;;;15.88;12.93;;;14.40;99.90;;;;;;5059261;28;20087;-75
2021/09/08 00:39:03;;;;;;;19.73;13.63;;;14.50;99.90;;;;;;5053996;28;20064;-75
2021/09/08 00:41:30;;;;;;;20.15;13.80;;;14.40;99.90;;;;;;5054404;28;20096;-76
2021/09/08 00:44:04;;;;;;;19.80;12.95;;;14.30;99.90;;;;;;5053767;28;20029;-75
2021/09/08 00:46:30;;;;;;;18.25;12.90;;;14.30;99.90;;;;;;5052263;28;20028;-75
2021/09/08 00:48:55;;;;;;;17.25;12.82;;;14.40;99.90;;;;;;5053662;28;20033;-76
2021/09/08 00:51:21;;;;;;;18.38;13.63;;;14.40;99.90;;;;;;5053609;28;20033;-75
2021/09/08 00:53:46;;;;;;;14.77;12.43;;;14.30;99.90;;;;;;5052363;28;20475;-75
2021/09/08 00:56:14;;;;;;;19.10;12.70;;;14.20;99.90;;;;;;5052119;28;20133;-75
2021/09/08 00:58:40;;;;;;;17.17;12.77;;;14.20;99.90;;;;;;5052318;28;20021;-75
2021/09/08 01:01:05;;;;;;;18.58;12.95;;;14.10;99.90;;;;;;5052241;28;20032;-75
2021/09/08 01:03:31;;;;;;;19.02;12.07;;;14.10;99.90;;;;;;5053657;28;20021;-75
2021/09/08 01:05:56;;;;;;;14.70;12.30;;;14.20;99.90;;;;;;5053185;28;20368;-75
2021/09/08 01:08:22;;;;;;;19.35;13.35;;;14.10;99.90;;;;;;5052159;28;20072;-75
2021/09/08 01:10:48;;;;;;;18.33;13.05;;;14.10;99.90;;;;;;5066165;28;20031;-76
2021/09/08 01:13:14;;;;;;;19.20;13.27;;;14.00;99.90;;;;;;5053164;28;20039;-76
2021/09/08 01:15:39;;;;;;;18.88;13.55;;;13.90;99.90;;;;;;5052312;28;20028;-75
2021/09/08 01:18:05;;;;;;;19.08;13.40;;;14.00;99.90;;;;;;5065417;28;20040;-75
2021/09/08 01:20:30;;;;;;;16.98;13.35;;;13.90;99.90;;;;;;5066208;28;20027;-75
2021/09/08 01:22:56;;;;;;;18.38;14.32;;;13.70;99.90;;;;;;5073685;28;20029;-75
2021/09/08 01:25:25;;;;;;;17.15;13.65;;;13.80;99.90;;;;;;5057244;28;20017;-75
2021/09/08 01:27:52;;;;;;;18.50;14.20;;;13.70;99.90;;;;;;5051730;28;20060;-75
2021/09/08 01:30:20;;;;;;;19.83;13.77;;;13.80;99.90;;;;;;5065286;28;20478;-76
2021/09/08 01:32:50;;;;;;;17.95;14.20;;;13.70;99.90;;;;;;5053009;28;20040;-75
2021/09/08 01:35:17;;;;;;;17.45;13.10;;;13.70;99.90;;;;;;5052536;28;20025;-75
2021/09/08 01:37:42;;;;;;;18.23;13.57;;;13.70;99.90;;;;;;5052840;28;20495;-75
2021/09/08 01:40:08;;;;;;;16.30;12.73;;;13.70;99.90;;;;;;5052569;28;20029;-75
2021/09/08 01:42:34;;;;;;;16.85;13.00;;;13.80;99.90;;;;;;5051491;28;20031;-75
2021/09/08 01:45:00;;;;;;;18.02;13.35;;;13.80;99.90;;;;;;5054483;28;20021;-75
2021/09/08 01:47:26;;;;;;;16.38;12.70;;;13.80;99.90;;;;;;5062633;28;20055;-75
2021/09/08 01:49:51;;;;;;;16.80;12.70;;;13.80;99.90;;;;;;5051245;28;20457;-75
2021/09/08 01:52:17;;;;;;;18.88;13.50;;;13.80;99.90;;;;;;5052634;28;20548;-75
2021/09/08 01:54:43;;;;;;;17.75;13.10;;;13.80;99.90;;;;;;5052077;28;20429;-75
2021/09/08 01:57:08;;;;;;;19.00;13.55;;;13.80;99.90;;;;;;5051252;28;20039;-76
2021/09/08 01:59:34;;;;;;;16.00;13.50;;;13.70;99.90;;;;;;5052299;28;20033;-75
2021/09/08 02:01:59;;;;;;;18.65;13.70;;;13.60;99.90;;;;;;5052455;28;20124;-75
2021/09/08 02:04:25;;;;;;;17.15;13.10;;;13.70;99.90;;;;;;5052055;28;20471;-76
2021/09/08 02:06:52;;;;;;;15.82;13.07;;;13.70;99.90;;;;;;5052367;28;20100;-75
2021/09/08 02:09:19;;;;;;;18.25;13.52;;;13.60;99.90;;;;;;5052624;28;20060;-75
2021/09/08 02:11:45;;;;;;;19.02;13.30;;;13.60;99.90;;;;;;5061121;28;20473;-75
2021/09/08 02:14:11;;;;;;;19.40;13.98;;;13.80;99.90;;;;;;5072029;28;20071;-75
2021/09/08 02:16:36;;;;;;;17.63;13.75;;;13.70;99.90;;;;;;5063660;28;20082;-75
2021/09/08 02:19:02;;;;;;;20.80;13.27;;;13.50;99.90;;;;;;5050720;28;20475;-76
2021/09/08 02:21:28;;;;;;;16.17;13.15;;;13.50;99.90;;;;;;5052179;28;20024;-76
2021/09/08 02:23:54;;;;;;;17.20;13.75;;;13.60;99.90;;;;;;5051986;28;20017;-75
2021/09/08 02:26:19;;;;;;;18.65;13.50;;;13.70;99.90;;;;;;5050535;28;20140;-75
2021/09/08 02:28:45;;;;;;;19.20;14.48;;;13.70;99.90;;;;;;5050830;28;20386;-75
2021/09/08 02:31:11;;;;;;;22.20;14.32;;;13.60;99.90;;;;;;5051910;28;20087;-76
2021/09/08 02:33:37;;;;;;;17.63;13.55;;;13.50;99.90;;;;;;5051795;28;20029;-75
2021/09/08 02:36:04;;;;;;;17.92;13.77;;;13.50;99.90;;;;;;5051687;28;20494;-75
2021/09/08 02:38:30;;;;;;;20.00;14.38;;;13.50;99.90;;;;;;5051052;28;20029;-75
2021/09/08 02:40:59;;;;;;;19.20;15.05;;;13.60;99.90;;;;;;5050707;28;20028;-75
2021/09/08 02:43:25;;;;;;;19.35;14.55;;;13.60;99.90;;;;;;5051725;28;20021;-75
2021/09/08 02:45:51;;;;;;;20.02;14.85;;;13.60;99.90;;;;;;5050298;28;20028;-75
2021/09/08 02:48:16;;;;;;;19.80;14.43;;;13.70;99.90;;;;;;5051645;28;20052;-75
2021/09/08 02:50:42;;;;;;;26.38;15.10;;;13.70;99.90;;;;;;5051548;28;20048;-75
2021/09/08 02:53:07;;;;;;;21.38;14.80;;;13.80;99.90;;;;;;5063806;28;20059;-75
2021/09/08 02:55:33;;;;;;;18.27;14.63;;;13.80;99.90;;;;;;5051381;28;20104;-75
2021/09/08 02:57:58;;;;;;;17.05;14.25;;;13.70;99.90;;;;;;5051542;28;20029;-75
2021/09/08 03:00:24;;;;;;;19.58;15.18;;;13.70;99.90;;;;;;5059887;28;20021;-75
2021/09/08 03:02:49;;;;;;;21.48;15.10;;;13.80;99.90;;;;;;5068483;28;20028;-75
2021/09/08 03:05:15;;;;;;;20.30;15.15;;;13.80;99.90;;;;;;5050005;28;20029;-75
2021/09/08 03:07:40;;;;;;;19.75;15.45;;;13.60;99.90;;;;;;5051294;28;20036;-75
2021/09/08 03:10:06;;;;;;;20.55;15.40;;;13.50;99.90;;;;;;5059442;28;20024;-75
2021/09/08 03:12:32;;;;;;;20.38;15.00;;;13.50;99.90;;;;;;5055735;28;20480;-75
2021/09/08 03:14:57;;;;;;;19.10;15.30;;;13.50;99.90;;;;;;5051217;28;20107;-75
2021/09/08 03:17:23;;;;;;;19.27;14.90;;;13.40;99.90;;;;;;5062685;28;20035;-75
2021/09/08 03:19:48;;;;;;;19.40;15.73;;;13.60;99.90;;;;;;5050060;28;20039;-75
2021/09/08 03:22:14;;;;;;;21.42;16.30;;;13.50;99.90;;;;;;5049860;28;20037;-75
2021/09/08 03:24:39;;;;;;;21.60;16.58;;;13.50;99.90;;;;;;5049803;28;20048;-75
2021/09/08 03:27:05;;;;;;;19.83;14.95;;;13.50;99.90;;;;;;5050016;28;20053;-75
2021/09/08 03:29:31;;;;;;;19.95;15.32;;;13.60;99.90;;;;;;5051322;28;20025;-75
2021/09/08 03:31:56;;;;;;;18.48;15.52;;;13.60;99.90;;;;;;5051138;28;20083;-75
2021/09/08 03:34:22;;;;;;;24.25;17.42;;;13.50;99.90;;;;;;5051037;28;20653;-75
2021/09/08 03:36:47;;;;;;;21.77;16.60;;;13.50;99.90;;;;;;5049734;28;20025;-75
2021/09/08 03:39:13;;;;;;;22.65;17.50;;;13.50;99.90;;;;;;5049816;28;20084;-75
2021/09/08 03:41:38;;;;;;;26.95;18.77;;;13.40;99.90;;;;;;5049708;28;20039;-75
2021/09/08 03:44:04;;;;;;;24.02;16.70;;;13.40;99.90;;;;;;5049768;28;20531;-75
2021/09/08 03:46:29;;;;;;;21.65;16.25;;;13.50;99.90;;;;;;5049674;28;20036;-75
2021/09/08 03:48:55;;;;;;;21.45;16.58;;;13.40;99.90;;;;;;5049715;28;20028;-75
2021/09/08 03:51:20;;;;;;;24.63;17.58;;;13.50;99.90;;;;;;5053821;28;20155;-75
2021/09/08 03:53:46;;;;;;;19.85;16.73;;;13.50;99.90;;;;;;5054771;28;20059;-75
2021/09/08 03:56:11;;;;;;;23.65;16.63;;;13.40;99.90;;;;;;5054525;28;20032;-75
2021/09/08 03:58:37;;;;;;;24.40;17.95;;;13.20;99.90;;;;;;5054652;28;20114;-76
2021/09/08 04:01:03;;;;;;;19.73;16.25;;;13.20;99.90;;;;;;5053395;28;20491;-75
2021/09/08 04:03:28;;;;;;;20.42;15.98;;;13.10;99.90;;;;;;5053319;28;20380;-75
2021/09/08 04:05:54;;;;;;;22.80;17.77;;;13.20;99.90;;;;;;5054239;28;20483;-75
2021/09/08 04:08:19;;;;;;;23.92;17.55;;;13.10;99.90;;;;;;5054515;28;20067;-75
2021/09/08 04:10:45;;;;;;;24.27;19.05;;;13.10;99.90;;;;;;5054368;28;20418;-75
2021/09/08 04:13:11;;;;;;;21.77;17.77;;;13.10;99.90;;;;;;5074607;28;20024;-75
2021/09/08 04:15:36;;;;;;;23.33;18.52;;;13.10;99.90;;;;;;5074123;28;20049;-75
2021/09/08 04:18:02;;;;;;;24.75;19.50;;;13.10;99.90;;;;;;5054467;28;20028;-75
2021/09/08 04:20:27;;;;;;;25.48;20.50;;;13.30;99.90;;;;;;5054176;28;20028;-75
2021/09/08 04:22:53;;;;;;;26.92;19.85;;;13.50;99.90;;;;;;5054420;28;20545;-75
2021/09/08 04:25:18;;;;;;;24.42;19.42;;;13.60;99.90;;;;;;5052690;28;20028;-75
2021/09/08 04:27:44;;;;;;;26.80;19.70;;;13.60;99.90;;;;;;5053015;28;20467;-75
2021/09/08 04:30:10;;;;;;;30.23;21.33;;;13.70;99.90;;;;;;5054276;28;20040;-76
2021/09/08 04:32:35;;;;;;;26.15;20.40;;;13.80;99.90;;;;;;5052834;28;20029;-76
2021/09/08 04:35:01;;;;;;;25.13;19.85;;;13.80;99.90;;;;;;5065980;28;20021;-75
2021/09/08 04:37:27;;;;;;;28.10;20.75;;;13.60;99.90;;;;;;5054022;28;20103;-75
2021/09/08 04:39:52;;;;;;;27.60;19.73;;;13.20;99.90;;;;;;5053938;28;20025;-75
2021/09/08 04:42:18;;;;;;;28.73;19.17;;;12.80;99.90;;;;;;5053860;28;20025;-75
2021/09/08 04:44:43;;;;;;;27.08;18.77;;;12.70;99.90;;;;;;5053627;28;20060;-75
2021/09/08 04:47:09;;;;;;;29.25;20.75;;;12.80;99.90;;;;;;5052516;28;20025;-75
2021/09/08 04:49:34;;;;;;;27.10;19.88;;;12.80;99.90;;;;;;5052370;28;20051;-75
2021/09/08 04:52:00;;;;;;;26.58;19.10;;;12.90;99.90;;;;;;5053718;28;20035;-75
2021/09/08 04:54:25;;;;;;;23.90;18.60;;;12.90;99.90;;;;;;5052206;28;20055;-75
2021/09/08 04:56:51;;;;;;;26.38;19.40;;;13.00;99.90;;;;;;5053711;28;20123;-75
2021/09/08 04:59:16;;;;;;;25.70;19.45;;;13.00;99.90;;;;;;5053643;28;20558;-75
2021/09/08 05:01:42;;;;;;;28.98;19.30;;;13.00;99.90;;;;;;5051909;28;20395;-75
2021/09/08 05:04:07;;;;;;;29.95;21.55;;;13.10;99.90;;;;;;5052157;28;20135;-75
2021/09/08 05:06:33;;;;;;;25.77;19.38;;;13.10;99.90;;;;;;5053108;28;20032;-75
2021/09/08 05:08:58;;;;;;;27.23;20.23;;;13.10;99.90;;;;;;5053462;28;20024;-75
2021/09/08 05:11:24;;;;;;;26.63;19.60;;;13.10;99.90;;;;;;5066137;28;20497;-75
2021/09/08 05:13:49;;;;;;;25.25;19.23;;;13.20;99.90;;;;;;5053243;28;20033;-76
2021/09/08 05:16:15;;;;;;;27.60;19.73;;;13.20;99.90;;;;;;5058333;28;20145;-75
2021/09/08 05:18:41;;;;;;;24.27;19.77;;;13.20;99.90;;;;;;5059166;28;20044;-75
2021/09/08 05:21:06;;;;;;;30.30;20.73;;;13.20;99.90;;;;;;5051940;28;20483;-75
2021/09/08 05:23:32;;;;;;;26.98;20.20;;;13.30;99.90;;;;;;5051857;28;20071;-75
2021/09/08 05:25:57;;;;;;;28.02;21.38;;;13.20;99.90;;;;;;5051581;28;20475;-75
2021/09/08 05:28:23;;;;;;;31.17;20.75;;;13.30;99.90;;;;;;5053092;28;20047;-75
2021/09/08 05:30:48;;;;;;;29.48;21.27;;;13.20;99.90;;;;;;5051640;28;20044;-75
2021/09/08 05:33:14;;;;;;;26.50;20.95;;;13.30;99.90;;;;;;5052920;28;20068;-75
2021/09/08 05:35:40;;;;;;;27.52;20.25;;;13.40;99.90;;;;;;5052616;28;20439;-75
2021/09/08 05:38:05;;;;;;;27.92;19.77;;;13.50;99.90;;;;;;5063611;28;20025;-75
2021/09/08 05:40:31;;;;;;;25.83;20.00;;;13.60;99.90;;;;;;5054327;28;20410;-75
2021/09/08 05:42:57;;;;;;;29.70;20.55;;;13.60;99.90;;;;;;5051790;28;20033;-76
2021/09/08 05:45:24;;;;;;;28.92;21.20;;;13.60;99.90;;;;;;5052351;28;20415;-75
2021/09/08 05:47:50;;;;;;;27.00;20.98;;;13.20;99.90;;;;;;5052754;28;20025;-75
2021/09/08 05:50:16;;;;;;;26.08;19.23;;;13.30;99.90;;;;;;5051164;28;20072;-75
2021/09/08 05:52:41;;;;;;;25.15;19.88;;;13.30;99.90;;;;;;5052617;28;20029;-75
2021/09/08 05:55:08;;;;;;;25.52;20.08;;;13.30;99.90;;;;;;5052403;28;20029;-75
2021/09/08 05:57:33;;;;;;;28.85;21.30;;;13.30;99.90;;;;;;5052487;28;20025;-75
2021/09/08 05:59:59;;;;;;;24.60;21.13;;;13.50;99.90;;;;;;5052419;28;20040;-75
2021/09/08 06:02:24;;;;;;;25.73;20.58;;;13.40;99.90;;;;;;5052505;28;20032;-75
2021/09/08 06:04:49;;;;;;;26.08;20.67;;;13.50;99.90;;;;;;5065377;28;20067;-75
2021/09/08 06:07:15;;;;;;;29.27;20.05;;;13.60;99.90;;;;;;5052409;28;20024;-75
2021/09/08 06:09:40;;;;;;;23.25;19.17;;;13.60;99.90;;;;;;5052232;28;20430;-75
2021/09/08 06:12:06;;;;;;;25.10;19.52;;;13.60;99.90;;;;;;5063806;28;20082;-75
2021/09/08 06:14:32;;;;;;;27.17;20.42;;;13.90;99.90;;;;;;5053067;28;20063;-75
2021/09/08 06:16:57;;;;;;;24.67;20.00;;;14.10;99.90;;;;;;5062015;28;20033;-75
2021/09/08 06:19:23;;;;;;;26.15;19.58;;;14.30;99.90;;;;;;5053502;28;20048;-75
2021/09/08 06:21:48;;;;;;;27.42;21.33;;;14.40;99.90;;;;;;5052070;28;20025;-75
2021/09/08 06:24:14;;;;;;;29.88;19.75;;;14.60;99.90;;;;;;5052052;28;20104;-75
2021/09/08 06:26:41;;;;;;;28.48;20.00;;;14.60;99.90;;;;;;5051824;28;20021;-75
2021/09/08 06:29:07;;;;;;;26.58;20.23;;;14.70;99.90;;;;;;5052000;28;20441;-75
2021/09/08 06:31:32;;;;;;;26.67;19.70;;;14.80;99.90;;;;;;5051946;28;20079;-75
2021/09/08 06:33:58;;;;;;;29.08;20.00;;;14.80;99.90;;;;;;5050630;28;20487;-75
2021/09/08 06:36:23;;;;;;;27.38;20.42;;;14.80;99.90;;;;;;5050385;28;20471;-76
2021/09/08 06:38:49;;;;;;;27.02;19.90;;;14.90;99.90;;;;;;5055231;28;20033;-75
2021/09/08 06:41:15;;;;;;;24.42;19.17;;;15.00;99.90;;;;;;5059062;28;20013;-75
2021/09/08 06:43:41;;;;;;;23.75;18.33;;;15.20;99.90;;;;;;5051554;28;20025;-76
2021/09/08 06:46:06;;;;;;;26.98;18.10;;;15.30;99.90;;;;;;5051580;28;20025;-75
2021/09/08 06:48:32;;;;;;;26.02;18.50;;;15.40;99.90;;;;;;5050209;28;20108;-75
2021/09/08 06:50:57;;;;;;;24.67;18.50;;;15.60;99.90;;;;;;5050285;28;20029;-75
2021/09/08 06:53:24;;;;;;;23.15;17.80;;;15.40;99.90;;;;;;5051596;28;20051;-75
2021/09/08 06:55:49;;;;;;;24.65;18.17;;;15.80;99.90;;;;;;5051328;28;20033;-75
2021/09/08 06:58:15;;;;;;;26.25;18.20;;;15.80;99.90;;;;;;5050470;28;20438;-75
2021/09/08 07:00:40;;;;;;;24.95;18.25;;;15.90;99.90;;;;;;5050211;28;20021;-75
2021/09/08 07:03:06;;;;;;;31.20;21.55;;;16.00;99.90;;;;;;5051418;28;20021;-75
2021/09/08 07:05:32;;;;;;;27.50;19.67;;;16.00;99.90;;;;;;5049944;28;20021;-76
2021/09/08 07:07:57;;;;;;;29.13;20.42;;;16.00;99.90;;;;;;5050109;28;20380;-75
2021/09/08 07:10:23;;;;;;;31.08;20.27;;;16.10;99.90;;;;;;5061143;28;20494;-76
2021/09/08 07:12:48;;;;;;;31.08;20.63;;;16.10;99.90;;;;;;5065874;28;20018;-76
2021/09/08 07:15:14;;;;;;;27.30;19.85;;;16.20;99.90;;;;;;5050023;28;20484;-75
2021/09/08 07:17:40;;;;;;;28.27;19.23;;;16.30;99.90;;;;;;5062700;28;20102;-75
2021/09/08 07:20:06;;;;;;;27.50;19.00;;;16.40;99.90;;;;;;5051391;28;20025;-75
2021/09/08 07:22:31;;;;;;;30.55;21.00;;;16.50;99.90;;;;;;5051801;28;20017;-76
2021/09/08 07:24:57;;;;;;;26.40;19.73;;;16.60;99.90;;;;;;5053426;28;20076;-74
2021/09/08 07:27:22;;;;;;;33.40;19.27;;;16.80;99.90;;;;;;5055272;28;20032;-72
2021/09/08 07:29:48;;;;;;;26.23;18.38;;;17.00;99.90;;;;;;5055354;28;20273;-72
2021/09/08 07:32:13;;;;;;;32.80;21.75;;;17.10;99.90;;;;;;5055087;28;20411;-71
2021/09/08 07:34:39;;;;;;;35.22;22.02;;;17.20;99.90;;;;;;5054756;28;20036;-71
2021/09/08 07:37:05;;;;;;;35.78;22.20;;;17.40;99.90;;;;;;5055075;28;20099;-72
2021/09/08 07:39:31;;;;;;;30.15;19.75;;;17.50;99.90;;;;;;5055077;28;20053;-71
2021/09/08 07:41:57;;;;;;;26.40;18.02;;;17.50;99.90;;;;;;5053720;28;20032;-76
2021/09/08 07:44:23;;;;;;;27.88;18.08;;;17.60;99.90;;;;;;5054833;28;20063;-76
2021/09/08 07:46:48;;;;;;;23.65;16.88;;;17.60;99.90;;;;;;5054769;28;20044;-76
2021/09/08 07:49:14;;;;;;;21.80;16.52;;;17.80;99.90;;;;;;5054917;28;20041;-76
2021/09/08 07:51:39;;;;;;;23.83;16.20;;;18.00;99.90;;;;;;5055006;28;20044;-75
2021/09/08 07:54:05;;;;;;;23.67;16.50;;;18.00;99.90;;;;;;5054761;28;20055;-76
2021/09/08 07:56:30;;;;;;;20.48;16.38;;;18.10;99.90;;;;;;5054680;28;20036;-76
2021/09/08 07:58:56;;;;;;;24.38;16.13;;;18.20;99.90;;;;;;5064020;28;20051;-76
2021/09/08 08:01:21;;;;;;;19.88;15.27;;;18.40;99.90;;;;;;5056171;28;20027;-76
2021/09/08 08:03:47;;;;;;;22.08;16.02;;;18.40;99.90;;;;;;5053430;28;20078;-76
2021/09/08 08:06:13;;;;;;;20.60;16.00;;;18.50;99.90;;;;;;5054536;28;20099;-75
2021/09/08 08:08:38;;;;;;;22.25;16.55;;;18.50;99.90;;;;;;5053183;28;20112;-76
2021/09/08 08:11:04;;;;;;;17.80;15.02;;;18.60;99.90;;;;;;5071310;28;20067;-76
2021/09/08 08:13:30;;;;;;;22.42;16.77;;;18.70;99.90;;;;;;5073186;28;20466;-76
2021/09/08 08:15:55;;;;;;;20.20;16.67;;;18.70;99.90;;;;;;5071384;28;20025;-76
2021/09/08 08:18:21;;;;;;;21.90;15.38;;;18.80;99.90;;;;;;5053378;28;20028;-76
2021/09/08 08:20:46;;;;;;;20.13;15.23;;;18.90;99.90;;;;;;5054328;28;20104;-76
2021/09/08 08:23:13;;;;;;;22.52;15.63;;;18.90;99.90;;;;;;5054456;28;20403;-76
2021/09/08 08:25:38;;;;;;;21.65;15.38;;;19.10;99.90;;;;;;5052573;28;20505;-75
2021/09/08 08:28:04;;;;;;;20.90;15.80;;;19.10;99.90;;;;;;5054216;28;20021;-76
2021/09/08 08:30:30;;;;;;;20.08;13.45;;;19.40;99.90;;;;;;5052736;28;20497;-76
2021/09/08 08:32:56;;;;;;;15.82;12.98;;;19.40;99.90;;;;;;5052860;28;20025;-76
2021/09/08 08:35:22;;;;;;;20.70;13.63;;;19.60;99.90;;;;;;5052014;28;20040;-76
2021/09/08 08:37:51;;;;;;;15.52;12.27;;;19.90;99.90;;;;;;5053778;28;20032;-76
2021/09/08 08:40:18;;;;;;;16.92;12.45;;;20.00;99.90;;;;;;5053837;28;20032;-76
2021/09/08 08:42:44;;;;;;;14.13;11.48;;;20.10;99.90;;;;;;5052647;28;20447;-76
2021/09/08 08:45:10;;;;;;;15.93;11.93;;;20.20;99.90;;;;;;5053562;28;20028;-76
2021/09/08 08:47:36;;;;;;;13.32;11.93;;;20.30;99.90;;;;;;5052650;28;20478;-76
2021/09/08 08:50:04;;;;;;;15.40;12.30;;;20.30;99.90;;;;;;5053632;28;20037;-76
2021/09/08 08:52:29;;;;;;;15.40;12.10;;;20.30;99.90;;;;;;5053901;28;20533;-76
2021/09/08 08:54:56;;;;;;;14.70;11.85;;;20.50;99.90;;;;;;5052114;28;20033;-76
2021/09/08 08:57:21;;;;;;;16.98;12.50;;;20.60;99.90;;;;;;5053704;28;20021;-76
2021/09/08 08:59:50;;;;;;;15.13;12.52;;;20.70;99.90;;;;;;5052175;28;20036;-76
2021/09/08 09:02:17;;;;;;;14.45;12.63;;;20.60;99.90;;;;;;5052413;28;20028;-76
2021/09/08 09:04:43;;;;;;;14.77;12.43;;;20.70;99.90;;;;;;5053298;28;20091;-76
2021/09/08 09:07:23;;;;;;;15.52;11.90;;;20.80;99.90;;;;;;5053603;28;20542;-76
2021/09/08 09:09:54;;;;;;;13.90;11.13;;;21.00;99.90;;;;;;5053386;28;20379;-76
2021/09/08 09:12:24;;;;;;;17.00;11.50;;;21.10;99.90;;;;;;5065325;28;20031;-76
2021/09/08 09:14:50;;;;;;;16.88;11.73;;;21.00;99.90;;;;;;5051824;28;20036;-76
2021/09/08 09:17:16;;;;;;;13.00;10.77;;;21.10;99.90;;;;;;5064814;28;20032;-76
2021/09/08 09:19:46;;;;;;;12.10;10.52;;;21.10;99.90;;;;;;5060883;28;20025;-76
2021/09/08 09:22:12;;;;;;;16.02;11.38;;;21.20;99.90;;;;;;5073101;28;20013;-76
2021/09/08 09:24:40;;;;;;;13.60;11.55;;;21.40;99.90;;;;;;5071441;28;20078;-76
2021/09/08 09:27:10;;;;;;;17.10;11.93;;;21.50;99.90;;;;;;5073029;28;20036;-76
2021/09/08 09:29:41;;;;;;;13.40;11.10;;;21.60;99.90;;;;;;5073087;28;20475;-76
2021/09/08 09:32:08;;;;;;;13.40;10.20;;;21.60;99.90;;;;;;5073042;28;20029;-76
2021/09/08 09:34:33;;;;;;;11.77;10.48;;;21.60;99.90;;;;;;5071456;28;20028;-76
2021/09/08 09:37:00;;;;;;;13.55;10.70;;;21.60;99.90;;;;;;5072974;28;20414;-76
2021/09/08 09:39:32;;;;;;;13.18;10.48;;;21.70;99.90;;;;;;5071373;28;20496;-76
2021/09/08 09:41:59;;;;;;;11.63;10.00;;;21.70;99.90;;;;;;5072724;28;20479;-76
2021/09/08 09:44:30;;;;;;;13.32;10.63;;;22.00;99.90;;;;;;5071137;28;20532;-76
2021/09/08 09:46:56;;;;;;;12.55;10.82;;;22.20;99.90;;;;;;5066329;28;20021;-76
2021/09/08 09:49:22;;;;;;;12.23;9.95;;;22.10;99.90;;;;;;5050708;28;20025;-76
2021/09/08 09:51:47;;;;;;;14.45;10.90;;;22.10;99.90;;;;;;5052491;28;20029;-76
2021/09/08 09:54:15;;;;;;;12.20;10.43;;;22.20;99.90;;;;;;5052454;28;20072;-76
2021/09/08 09:56:40;;;;;;;15.80;10.77;;;22.20;99.90;;;;;;5052364;28;20471;-76
2021/09/08 09:59:06;;;;;;;13.95;10.50;;;22.10;99.90;;;;;;5052440;28;20040;-76
2021/09/08 10:01:32;;;;;;;12.05;10.50;;;22.20;99.90;;;;;;5052517;28;20021;-76
2021/09/08 10:03:58;;;;;;;12.60;10.15;;;22.50;99.90;;;;;;5051297;28;20483;-76
2021/09/08 10:06:24;;;;;;;13.63;10.13;;;22.40;99.90;;;;;;5050594;28;20025;-76
2021/09/08 10:08:56;;;;;;;14.98;9.93;;;22.50;99.90;;;;;;5064050;28;20032;-76
2021/09/08 10:11:25;;;;;;;12.85;10.40;;;22.70;99.90;;;;;;5064777;28;20027;-76
2021/09/08 10:13:59;;;;;;;13.65;9.55;;;23.00;99.90;;;;;;5052285;28;20417;-76
2021/09/08 10:16:27;;;;;;;12.13;9.30;;;22.90;99.90;;;;;;5052074;28;20379;-76
2021/09/08 10:18:53;;;;;;;10.73;8.90;;;22.90;99.90;;;;;;5051948;28;20021;-76
2021/09/08 10:21:19;;;;;;;10.77;9.52;;;22.90;99.90;;;;;;5051966;28;20024;-76
2021/09/08 10:23:55;;;;;;;11.57;8.98;;;23.10;99.90;;;;;;5050644;28;20029;-76
2021/09/08 10:26:27;;;;;;;10.52;8.95;;;23.20;99.90;;;;;;5051659;28;20056;-76
2021/09/08 10:28:54;;;;;;;10.30;8.60;;;23.20;99.90;;;;;;5051958;28;20025;-76
2021/09/08 10:31:20;;;;;;;10.48;8.57;;;23.40;99.90;;;;;;5051833;28;20025;-76
2021/09/08 10:33:45;;;;;;;9.80;8.65;;;23.30;99.90;;;;;;5053556;28;20105;-76
2021/09/08 10:36:13;;;;;;;11.93;8.40;;;23.30;99.90;;;;;;5061841;28;20049;-76
2021/09/08 10:38:39;;;;;;;11.10;8.50;;;23.30;99.90;;;;;;5051649;28;20033;-75
2021/09/08 10:41:07;;;;;;;9.77;8.45;;;23.30;99.90;;;;;;5051935;28;20484;-76
2021/09/08 10:43:35;;;;;;;12.75;8.60;;;23.60;99.90;;;;;;5051819;28;20031;-77
2021/09/08 10:46:03;;;;;;;11.30;8.98;;;23.60;99.90;;;;;;5051419;28;20025;-77
2021/09/08 10:48:41;;;;;;;9.93;8.70;;;23.60;99.90;;;;;;5050364;28;20074;-76
2021/09/08 10:51:32;;;;;;;11.73;8.13;;;23.80;99.90;;;;;;5051626;28;20037;-77
2021/09/08 10:54:05;;;;;;;8.77;7.80;;;23.90;99.90;;;;;;5044572;28;20033;-76
2021/09/08 10:56:43;;;;;;;9.70;7.50;;;23.90;99.90;;;;;;5051323;28;20060;-77
2021/09/08 10:59:09;;;;;;;16.73;7.10;;;23.90;99.90;;;;;;5049768;28;20435;-76
2021/09/08 11:01:35;;;;;;;9.48;7.45;;;23.90;99.90;;;;;;5050237;28;20112;-76
2021/09/08 11:04:02;;;;;;;9.30;7.60;;;24.00;99.90;;;;;;5050274;28;20029;-76
2021/09/08 11:06:45;;;;;;;8.57;6.85;;;24.00;99.90;;;;;;5051266;28;20036;-76
2021/09/08 11:09:13;;;;;;;8.48;6.95;;;24.20;99.90;;;;;;5051428;28;20051;-76
2021/09/08 11:11:53;;;;;;;8.82;7.13;;;24.30;99.90;;;;;;5059526;28;20051;-76
2021/09/08 11:14:21;;;;;;;9.70;7.32;;;24.30;99.90;;;;;;5069871;28;20025;-76
2021/09/08 11:16:46;;;;;;;7.97;7.13;;;24.40;99.90;;;;;;5061849;28;20056;-76
2021/09/08 11:19:13;;;;;;;11.85;7.45;;;24.50;99.90;;;;;;5051798;28;20075;-76
2021/09/08 11:21:39;;;;;;;10.25;7.55;;;24.50;99.90;;;;;;5049988;28;20029;-76
2021/09/08 11:24:08;;;;;;;8.77;7.45;;;24.50;99.90;;;;;;5049903;28;20017;-76
2021/09/08 11:26:36;;;;;;;9.15;7.07;;;24.40;99.90;;;;;;5051211;28;20044;-76
2021/09/08 11:29:03;;;;;;;9.38;7.63;;;24.60;99.90;;;;;;5049931;28;20020;-76
2021/09/08 11:31:36;;;;;;;9.32;7.35;;;24.70;99.90;;;;;;5049978;28;20021;-76
2021/09/08 11:34:03;;;;;;;11.27;7.95;;;24.80;99.90;;;;;;5051048;28;20074;-76
2021/09/08 11:36:30;;;;;;;8.77;7.53;;;24.70;99.90;;;;;;5051065;28;20032;-77
2021/09/08 11:38:57;;;;;;;7.82;6.65;;;24.80;99.90;;;;;;5051064;28;20021;-76
2021/09/08 11:41:27;;;;;;;8.38;7.20;;;24.80;99.90;;;;;;5049906;28;20547;-77
2021/09/08 11:43:55;;;;;;;9.18;7.15;;;24.90;99.90;;;;;;5051219;28;20051;-76
2021/09/08 11:46:30;;;;;;;8.30;7.40;;;24.90;99.90;;;;;;5051011;28;20020;-76
2021/09/08 11:49:11;;;;;;;7.95;6.72;;;25.20;99.90;;;;;;5051157;28;20025;-76
2021/09/08 11:51:39;;;;;;;9.85;7.47;;;25.30;99.90;;;;;;5051060;28;20036;-76
2021/09/08 11:54:07;;;;;;;8.45;7.13;;;25.30;99.90;;;;;;5050943;28;20487;-76
2021/09/08 11:56:37;;;;;;;9.18;7.13;;;25.40;99.90;;;;;;5050899;28;20024;-76
2021/09/08 11:59:04;;;;;;;9.73;7.75;;;25.90;99.90;;;;;;5050968;28;20040;-76
2021/09/08 12:01:40;;;;;;;10.30;7.95;;;26.40;99.90;;;;;;5050954;28;20017;-76
2021/09/08 12:04:09;;;;;;;10.38;7.55;;;27.00;99.90;;;;;;5049768;28;20021;-76
2021/09/08 12:06:57;;;;;;;11.90;7.30;;;27.10;99.90;;;;;;5050775;28;20108;-76
2021/09/08 12:09:30;;;;;;;9.82;7.25;;;27.70;99.90;;;;;;5051270;28;20495;-77
2021/09/08 12:12:01;;;;;;;10.13;7.55;;;28.30;99.50;;;;;;5063651;28;20023;-76
2021/09/08 12:14:32;;;;;;;11.68;7.68;;;28.30;98.00;;;;;;5070109;28;20035;-77
2021/09/08 12:17:03;;;;;;;8.02;7.22;;;28.50;97.70;;;;;;5065655;28;20379;-77
2021/09/08 12:19:36;;;;;;;7.88;7.07;;;28.50;96.70;;;;;;5054012;28;20032;-76
2021/09/08 12:22:14;;;;;;;9.35;7.68;;;28.50;97.90;;;;;;5054517;28;20032;-77
2021/09/08 12:24:58;;;;;;;8.95;7.03;;;29.00;97.20;;;;;;5054263;28;20032;-77
2021/09/08 12:27:36;;;;;;;8.15;7.30;;;29.20;97.20;;;;;;5054139;28;20025;-77